sensor_id;sensor_type;location;lat;lon;timestamp;P1;durP1;ratioP1;P2;durP2;ratioP2
70744;SDS011;59284;31.390;34.904;2022-07-23T00:00:50;27.00;;;15.10;;
70744;SDS011;59284;31.390;34.904;2022-07-23T00:03:15;24.48;;;15.57;;
70744;SDS011;59284;31.390;34.904;2022-07-23T00:05:41;25.63;;;16.10;;
70744;SDS011;59284;31.390;34.904;2022-07-23T00:08:07;30.63;;;16.05;;
70744;SDS011;59284;31.390;34.904;2022-07-23T00:10:33;30.33;;;16.90;;
70744;SDS011;59284;31.390;34.904;2022-07-23T00:12:59;30.60;;;17.03;;
70744;SDS011;59284;31.390;34.904;2022-07-23T00:15:25;34.55;;;18.48;;
70744;SDS011;59284;31.390;34.904;2022-07-23T00:17:50;37.03;;;19.45;;
70744;SDS011;59284;31.390;34.904;2022-07-23T00:20:16;35.43;;;17.73;;
70744;SDS011;59284;31.390;34.904;2022-07-23T00:22:49;29.30;;;17.33;;
70744;SDS011;59284;31.390;34.904;2022-07-23T00:25:20;38.08;;;18.13;;
70744;SDS011;59284;31.390;34.904;2022-07-23T00:27:47;33.93;;;17.77;;
70744;SDS011;59284;31.390;34.904;2022-07-23T00:30:13;36.80;;;18.23;;
70744;SDS011;59284;31.390;34.904;2022-07-23T00:32:48;38.45;;;18.25;;
70744;SDS011;59284;31.390;34.904;2022-07-23T00:35:15;32.92;;;18.10;;
70744;SDS011;59284;31.390;34.904;2022-07-23T00:37:44;31.37;;;18.50;;
70744;SDS011;59284;31.390;34.904;2022-07-23T00:40:11;30.13;;;17.13;;
70744;SDS011;59284;31.390;34.904;2022-07-23T00:42:40;31.42;;;17.30;;
70744;SDS011;59284;31.390;34.904;2022-07-23T00:45:09;27.90;;;16.92;;
70744;SDS011;59284;31.390;34.904;2022-07-23T00:47:35;32.17;;;18.20;;
70744;SDS011;59284;31.390;34.904;2022-07-23T00:50:06;37.30;;;18.23;;
70744;SDS011;59284;31.390;34.904;2022-07-23T00:52:33;33.10;;;18.35;;
70744;SDS011;59284;31.390;34.904;2022-07-23T00:55:00;34.22;;;18.83;;
70744;SDS011;59284;31.390;34.904;2022-07-23T00:57:27;31.35;;;18.05;;
70744;SDS011;59284;31.390;34.904;2022-07-23T00:59:55;38.55;;;20.92;;
70744;SDS011;59284;31.390;34.904;2022-07-23T01:02:23;34.87;;;19.50;;
70744;SDS011;59284;31.390;34.904;2022-07-23T01:04:50;39.33;;;20.85;;
70744;SDS011;59284;31.390;34.904;2022-07-23T01:07:18;36.83;;;21.55;;
70744;SDS011;59284;31.390;34.904;2022-07-23T01:09:49;37.60;;;20.27;;
70744;SDS011;59284;31.390;34.904;2022-07-23T01:12:17;37.72;;;19.35;;
70744;SDS011;59284;31.390;34.904;2022-07-23T01:14:43;38.43;;;20.63;;
70744;SDS011;59284;31.390;34.904;2022-07-23T01:17:14;42.55;;;22.35;;
70744;SDS011;59284;31.390;34.904;2022-07-23T01:19:42;39.03;;;21.73;;
70744;SDS011;59284;31.390;34.904;2022-07-23T01:22:08;40.13;;;21.17;;
70744;SDS011;59284;31.390;34.904;2022-07-23T01:24:52;33.92;;;20.20;;
70744;SDS011;59284;31.390;34.904;2022-07-23T01:30:28;33.20;;;19.15;;
70744;SDS011;59284;31.390;34.904;2022-07-23T01:33:36;37.58;;;20.92;;
70744;SDS011;59284;31.390;34.904;2022-07-23T01:36:16;37.30;;;19.13;;
70744;SDS011;59284;31.390;34.904;2022-07-23T01:39:10;42.13;;;20.52;;
70744;SDS011;59284;31.390;34.904;2022-07-23T01:42:09;36.97;;;20.53;;
70744;SDS011;59284;31.390;34.904;2022-07-23T01:47:23;38.40;;;21.77;;
70744;SDS011;59284;31.390;34.904;2022-07-23T01:49:54;47.28;;;21.77;;
70744;SDS011;59284;31.390;34.904;2022-07-23T01:52:25;42.33;;;21.80;;
70744;SDS011;59284;31.390;34.904;2022-07-23T01:55:00;36.07;;;21.60;;
70744;SDS011;59284;31.390;34.904;2022-07-23T01:57:28;36.47;;;19.33;;
70744;SDS011;59284;31.390;34.904;2022-07-23T01:59:58;37.28;;;20.40;;
70744;SDS011;59284;31.390;34.904;2022-07-23T02:02:24;33.20;;;20.25;;
70744;SDS011;59284;31.390;34.904;2022-07-23T02:04:56;37.17;;;20.35;;
70744;SDS011;59284;31.390;34.904;2022-07-23T02:07:27;32.73;;;19.23;;
70744;SDS011;59284;31.390;34.904;2022-07-23T02:10:05;32.67;;;19.13;;
70744;SDS011;59284;31.390;34.904;2022-07-23T02:12:31;36.78;;;20.02;;
70744;SDS011;59284;31.390;34.904;2022-07-23T02:14:57;34.22;;;18.17;;
70744;SDS011;59284;31.390;34.904;2022-07-23T02:17:23;30.50;;;19.27;;
70744;SDS011;59284;31.390;34.904;2022-07-23T02:19:49;31.50;;;20.00;;
70744;SDS011;59284;31.390;34.904;2022-07-23T02:22:17;32.13;;;19.67;;
70744;SDS011;59284;31.390;34.904;2022-07-23T02:24:43;36.47;;;20.30;;
70744;SDS011;59284;31.390;34.904;2022-07-23T02:27:14;44.15;;;21.60;;
70744;SDS011;59284;31.390;34.904;2022-07-23T02:29:40;32.35;;;19.75;;
70744;SDS011;59284;31.390;34.904;2022-07-23T02:32:06;39.50;;;20.90;;
70744;SDS011;59284;31.390;34.904;2022-07-23T02:34:31;35.97;;;19.88;;
70744;SDS011;59284;31.390;34.904;2022-07-23T02:37:00;37.10;;;20.30;;
70744;SDS011;59284;31.390;34.904;2022-07-23T02:39:29;32.30;;;19.67;;
70744;SDS011;59284;31.390;34.904;2022-07-23T02:41:55;34.13;;;19.55;;
70744;SDS011;59284;31.390;34.904;2022-07-23T02:44:24;33.28;;;20.63;;
70744;SDS011;59284;31.390;34.904;2022-07-23T02:46:52;38.85;;;21.98;;
70744;SDS011;59284;31.390;34.904;2022-07-23T02:49:21;35.83;;;19.67;;
70744;SDS011;59284;31.390;34.904;2022-07-23T02:51:56;38.08;;;20.13;;
70744;SDS011;59284;31.390;34.904;2022-07-23T02:54:22;47.65;;;22.33;;
70744;SDS011;59284;31.390;34.904;2022-07-23T02:56:48;39.63;;;20.85;;
70744;SDS011;59284;31.390;34.904;2022-07-23T02:59:16;38.83;;;21.00;;
70744;SDS011;59284;31.390;34.904;2022-07-23T03:01:42;46.33;;;21.25;;
70744;SDS011;59284;31.390;34.904;2022-07-23T03:04:11;42.65;;;22.45;;
70744;SDS011;59284;31.390;34.904;2022-07-23T03:06:40;39.08;;;22.50;;
70744;SDS011;59284;31.390;34.904;2022-07-23T03:09:13;44.28;;;22.92;;
70744;SDS011;59284;31.390;34.904;2022-07-23T03:11:38;42.63;;;24.00;;
70744;SDS011;59284;31.390;34.904;2022-07-23T03:14:04;39.83;;;22.80;;
70744;SDS011;59284;31.390;34.904;2022-07-23T03:16:38;45.60;;;24.42;;
70744;SDS011;59284;31.390;34.904;2022-07-23T03:19:04;42.38;;;23.40;;
70744;SDS011;59284;31.390;34.904;2022-07-23T03:21:35;44.93;;;23.43;;
70744;SDS011;59284;31.390;34.904;2022-07-23T03:24:08;44.33;;;23.02;;
70744;SDS011;59284;31.390;34.904;2022-07-23T03:26:37;44.25;;;23.08;;
70744;SDS011;59284;31.390;34.904;2022-07-23T03:29:06;43.25;;;22.42;;
70744;SDS011;59284;31.390;34.904;2022-07-23T03:31:52;39.78;;;22.20;;
70744;SDS011;59284;31.390;34.904;2022-07-23T03:34:25;37.37;;;21.10;;
70744;SDS011;59284;31.390;34.904;2022-07-23T03:40:02;36.92;;;18.88;;
70744;SDS011;59284;31.390;34.904;2022-07-23T03:43:03;43.42;;;20.38;;
70744;SDS011;59284;31.390;34.904;2022-07-23T03:45:53;35.30;;;19.08;;
70744;SDS011;59284;31.390;34.904;2022-07-23T03:51:25;28.70;;;16.75;;
70744;SDS011;59284;31.390;34.904;2022-07-23T03:54:09;21.30;;;14.02;;
70744;SDS011;59284;31.390;34.904;2022-07-23T04:00:25;24.17;;;12.93;;
70744;SDS011;59284;31.390;34.904;2022-07-23T04:03:10;18.90;;;12.70;;
70744;SDS011;59284;31.390;34.904;2022-07-23T04:05:59;19.38;;;10.73;;
70744;SDS011;59284;31.390;34.904;2022-07-23T04:08:40;17.73;;;10.68;;
70744;SDS011;59284;31.390;34.904;2022-07-23T04:11:22;18.77;;;10.50;;
70744;SDS011;59284;31.390;34.904;2022-07-23T04:14:07;20.42;;;10.80;;
70744;SDS011;59284;31.390;34.904;2022-07-23T04:16:43;17.17;;;9.70;;
70744;SDS011;59284;31.390;34.904;2022-07-23T04:19:09;17.90;;;9.30;;
70744;SDS011;59284;31.390;34.904;2022-07-23T04:21:35;19.67;;;9.20;;
70744;SDS011;59284;31.390;34.904;2022-07-23T04:24:01;18.37;;;8.87;;
70744;SDS011;59284;31.390;34.904;2022-07-23T04:26:26;16.63;;;8.63;;
70744;SDS011;59284;31.390;34.904;2022-07-23T04:28:52;13.85;;;8.25;;
70744;SDS011;59284;31.390;34.904;2022-07-23T04:31:18;14.13;;;8.43;;
70744;SDS011;59284;31.390;34.904;2022-07-23T04:33:44;13.88;;;8.98;;
70744;SDS011;59284;31.390;34.904;2022-07-23T04:36:09;14.97;;;7.90;;
70744;SDS011;59284;31.390;34.904;2022-07-23T04:38:35;15.60;;;9.07;;
70744;SDS011;59284;31.390;34.904;2022-07-23T04:41:01;14.30;;;8.03;;
70744;SDS011;59284;31.390;34.904;2022-07-23T04:43:27;16.00;;;8.00;;
70744;SDS011;59284;31.390;34.904;2022-07-23T04:45:55;11.40;;;7.32;;
70744;SDS011;59284;31.390;34.904;2022-07-23T04:48:21;9.70;;;6.90;;
70744;SDS011;59284;31.390;34.904;2022-07-23T04:50:47;13.97;;;7.97;;
70744;SDS011;59284;31.390;34.904;2022-07-23T04:53:13;12.23;;;7.32;;
70744;SDS011;59284;31.390;34.904;2022-07-23T04:55:39;15.30;;;7.80;;
70744;SDS011;59284;31.390;34.904;2022-07-23T04:58:06;14.40;;;8.30;;
70744;SDS011;59284;31.390;34.904;2022-07-23T05:00:32;11.85;;;7.85;;
70744;SDS011;59284;31.390;34.904;2022-07-23T05:02:58;13.47;;;8.50;;
70744;SDS011;59284;31.390;34.904;2022-07-23T05:05:24;12.55;;;8.70;;
70744;SDS011;59284;31.390;34.904;2022-07-23T05:07:55;17.48;;;8.98;;
70744;SDS011;59284;31.390;34.904;2022-07-23T05:10:54;15.50;;;8.18;;
70744;SDS011;59284;31.390;34.904;2022-07-23T05:13:23;14.37;;;7.67;;
70744;SDS011;59284;31.390;34.904;2022-07-23T05:15:51;16.48;;;8.45;;
70744;SDS011;59284;31.390;34.904;2022-07-23T05:18:31;12.70;;;8.30;;
70744;SDS011;59284;31.390;34.904;2022-07-23T05:21:21;13.88;;;8.45;;
70744;SDS011;59284;31.390;34.904;2022-07-23T05:24:00;14.13;;;8.32;;
70744;SDS011;59284;31.390;34.904;2022-07-23T05:26:29;14.73;;;8.43;;
70744;SDS011;59284;31.390;34.904;2022-07-23T05:29:09;12.80;;;9.30;;
70744;SDS011;59284;31.390;34.904;2022-07-23T05:31:44;16.02;;;9.30;;
70744;SDS011;59284;31.390;34.904;2022-07-23T05:34:18;16.15;;;9.82;;
70744;SDS011;59284;31.390;34.904;2022-07-23T05:40:35;16.05;;;9.35;;
70744;SDS011;59284;31.390;34.904;2022-07-23T05:43:10;14.20;;;9.13;;
70744;SDS011;59284;31.390;34.904;2022-07-23T05:45:36;20.63;;;9.13;;
70744;SDS011;59284;31.390;34.904;2022-07-23T05:48:15;15.00;;;8.60;;
70744;SDS011;59284;31.390;34.904;2022-07-23T05:51:00;12.53;;;8.60;;
70744;SDS011;59284;31.390;34.904;2022-07-23T05:53:40;20.38;;;8.93;;
70744;SDS011;59284;31.390;34.904;2022-07-23T05:56:36;15.00;;;8.57;;
70744;SDS011;59284;31.390;34.904;2022-07-23T05:59:02;13.93;;;8.63;;
70744;SDS011;59284;31.390;34.904;2022-07-23T06:04:17;12.02;;;8.15;;
70744;SDS011;59284;31.390;34.904;2022-07-23T06:06:42;18.02;;;8.20;;
70744;SDS011;59284;31.390;34.904;2022-07-23T06:09:08;12.17;;;7.27;;
70744;SDS011;59284;31.390;34.904;2022-07-23T06:11:36;13.32;;;7.20;;
70744;SDS011;59284;31.390;34.904;2022-07-23T06:14:02;12.75;;;6.50;;
70744;SDS011;59284;31.390;34.904;2022-07-23T06:16:33;14.95;;;7.28;;
70744;SDS011;59284;31.390;34.904;2022-07-23T06:19:25;9.27;;;5.80;;
70744;SDS011;59284;31.390;34.904;2022-07-23T06:21:48;7.25;;;5.88;;
70744;SDS011;59284;31.390;34.904;2022-07-23T06:24:14;11.13;;;5.95;;
70744;SDS011;59284;31.390;34.904;2022-07-23T06:26:40;8.63;;;5.30;;
70744;SDS011;59284;31.390;34.904;2022-07-23T06:29:08;12.50;;;5.25;;
70744;SDS011;59284;31.390;34.904;2022-07-23T06:31:40;12.38;;;6.03;;
70744;SDS011;59284;31.390;34.904;2022-07-23T06:34:08;9.67;;;5.60;;
70744;SDS011;59284;31.390;34.904;2022-07-23T06:36:36;10.05;;;5.70;;
70744;SDS011;59284;31.390;34.904;2022-07-23T06:39:02;9.98;;;6.10;;
70744;SDS011;59284;31.390;34.904;2022-07-23T06:41:30;8.43;;;5.37;;
70744;SDS011;59284;31.390;34.904;2022-07-23T06:46:37;9.57;;;5.50;;
70744;SDS011;59284;31.390;34.904;2022-07-23T06:49:38;10.38;;;5.35;;
70744;SDS011;59284;31.390;34.904;2022-07-23T06:52:22;8.57;;;5.30;;
70744;SDS011;59284;31.390;34.904;2022-07-23T06:54:48;12.00;;;5.30;;
70744;SDS011;59284;31.390;34.904;2022-07-23T06:57:14;8.95;;;5.40;;
70744;SDS011;59284;31.390;34.904;2022-07-23T06:59:40;15.00;;;5.30;;
70744;SDS011;59284;31.390;34.904;2022-07-23T07:02:06;7.47;;;4.88;;
70744;SDS011;59284;31.390;34.904;2022-07-23T07:04:36;8.55;;;5.05;;
70744;SDS011;59284;31.390;34.904;2022-07-23T07:07:02;8.77;;;5.13;;
70744;SDS011;59284;31.390;34.904;2022-07-23T07:09:28;12.80;;;5.43;;
70744;SDS011;59284;31.390;34.904;2022-07-23T07:11:55;13.05;;;5.50;;
70744;SDS011;59284;31.390;34.904;2022-07-23T07:14:25;10.32;;;4.80;;
70744;SDS011;59284;31.390;34.904;2022-07-23T07:16:52;12.02;;;4.57;;
70744;SDS011;59284;31.390;34.904;2022-07-23T07:19:18;11.57;;;4.50;;
70744;SDS011;59284;31.390;34.904;2022-07-23T07:21:44;10.38;;;3.97;;
70744;SDS011;59284;31.390;34.904;2022-07-23T07:24:09;10.43;;;3.80;;
70744;SDS011;59284;31.390;34.904;2022-07-23T07:26:35;4.47;;;3.08;;
70744;SDS011;59284;31.390;34.904;2022-07-23T07:29:05;6.07;;;3.10;;
70744;SDS011;59284;31.390;34.904;2022-07-23T07:31:32;8.13;;;3.65;;
70744;SDS011;59284;31.390;34.904;2022-07-23T07:34:02;9.50;;;4.30;;
70744;SDS011;59284;31.390;34.904;2022-07-23T07:36:33;9.23;;;4.03;;
70744;SDS011;59284;31.390;34.904;2022-07-23T07:39:06;9.30;;;3.40;;
70744;SDS011;59284;31.390;34.904;2022-07-23T07:41:36;7.63;;;3.45;;
70744;SDS011;59284;31.390;34.904;2022-07-23T07:44:20;5.95;;;3.20;;
70744;SDS011;59284;31.390;34.904;2022-07-23T07:46:47;4.43;;;2.63;;
70744;SDS011;59284;31.390;34.904;2022-07-23T07:49:19;5.50;;;3.33;;
70744;SDS011;59284;31.390;34.904;2022-07-23T07:51:46;11.45;;;3.00;;
70744;SDS011;59284;31.390;34.904;2022-07-23T07:54:21;8.63;;;3.33;;
70744;SDS011;59284;31.390;34.904;2022-07-23T07:56:49;6.35;;;2.65;;
70744;SDS011;59284;31.390;34.904;2022-07-23T07:59:17;9.43;;;3.17;;
70744;SDS011;59284;31.390;34.904;2022-07-23T08:01:42;10.48;;;3.22;;
70744;SDS011;59284;31.390;34.904;2022-07-23T08:04:09;10.88;;;2.88;;
70744;SDS011;59284;31.390;34.904;2022-07-23T08:06:35;8.35;;;3.10;;
70744;SDS011;59284;31.390;34.904;2022-07-23T08:09:01;9.07;;;3.00;;
70744;SDS011;59284;31.390;34.904;2022-07-23T08:11:32;7.65;;;3.25;;
70744;SDS011;59284;31.390;34.904;2022-07-23T08:13:59;5.15;;;2.75;;
70744;SDS011;59284;31.390;34.904;2022-07-23T08:16:25;7.75;;;3.22;;
70744;SDS011;59284;31.390;34.904;2022-07-23T08:18:50;4.30;;;2.73;;
70744;SDS011;59284;31.390;34.904;2022-07-23T08:21:16;9.35;;;2.92;;
70744;SDS011;59284;31.390;34.904;2022-07-23T08:41:15;5.38;;;3.10;;
70744;SDS011;59284;31.390;34.904;2022-07-23T08:43:48;6.82;;;3.10;;
70744;SDS011;59284;31.390;34.904;2022-07-23T09:07:15;9.48;;;3.03;;
70744;SDS011;59284;31.390;34.904;2022-07-23T09:09:41;6.32;;;2.85;;
70744;SDS011;59284;31.390;34.904;2022-07-23T10:58:52;9.23;;;2.83;;
70744;SDS011;59284;31.390;34.904;2022-07-23T11:02:23;6.37;;;2.33;;
70744;SDS011;59284;31.390;34.904;2022-07-23T11:11:15;4.88;;;2.45;;
70744;SDS011;59284;31.390;34.904;2022-07-23T11:14:14;8.35;;;3.10;;
70744;SDS011;59284;31.390;34.904;2022-07-23T11:23:08;6.78;;;2.58;;
70744;SDS011;59284;31.390;34.904;2022-07-23T13:08:33;5.93;;;2.05;;
70744;SDS011;59284;31.390;34.904;2022-07-23T13:11:00;6.60;;;2.20;;
70744;SDS011;59284;31.390;34.904;2022-07-23T13:13:27;7.13;;;2.03;;
70744;SDS011;59284;31.390;34.904;2022-07-23T13:15:55;4.60;;;2.08;;
70744;SDS011;59284;31.390;34.904;2022-07-23T13:18:22;5.53;;;2.40;;
70744;SDS011;59284;31.390;34.904;2022-07-23T13:20:51;3.88;;;1.80;;
70744;SDS011;59284;31.390;34.904;2022-07-23T13:23:22;4.63;;;1.70;;
70744;SDS011;59284;31.390;34.904;2022-07-23T13:25:49;4.43;;;2.03;;
70744;SDS011;59284;31.390;34.904;2022-07-23T13:28:19;7.63;;;2.03;;
70744;SDS011;59284;31.390;34.904;2022-07-23T13:30:46;3.47;;;1.70;;
70744;SDS011;59284;31.390;34.904;2022-07-23T13:33:14;5.35;;;1.75;;
70744;SDS011;59284;31.390;34.904;2022-07-23T13:35:49;6.40;;;2.58;;
70744;SDS011;59284;31.390;34.904;2022-07-23T13:38:16;6.53;;;1.70;;
70744;SDS011;59284;31.390;34.904;2022-07-23T13:40:44;8.32;;;2.20;;
70744;SDS011;59284;31.390;34.904;2022-07-23T13:43:12;8.82;;;2.60;;
70744;SDS011;59284;31.390;34.904;2022-07-23T13:45:39;7.95;;;2.38;;
70744;SDS011;59284;31.390;34.904;2022-07-23T13:48:07;9.50;;;2.90;;
70744;SDS011;59284;31.390;34.904;2022-07-23T13:50:37;7.37;;;2.10;;
70744;SDS011;59284;31.390;34.904;2022-07-23T13:53:08;4.10;;;1.50;;
70744;SDS011;59284;31.390;34.904;2022-07-23T13:55:36;8.13;;;2.30;;
70744;SDS011;59284;31.390;34.904;2022-07-23T13:58:06;3.33;;;2.00;;
70744;SDS011;59284;31.390;34.904;2022-07-23T14:00:33;9.27;;;2.05;;
70744;SDS011;59284;31.390;34.904;2022-07-23T14:03:00;9.40;;;2.20;;
70744;SDS011;59284;31.390;34.904;2022-07-23T14:05:26;4.68;;;2.15;;
70744;SDS011;59284;31.390;34.904;2022-07-23T14:07:53;6.35;;;2.25;;
70744;SDS011;59284;31.390;34.904;2022-07-23T14:10:19;6.57;;;1.90;;
70744;SDS011;59284;31.390;34.904;2022-07-23T14:12:47;7.35;;;2.08;;
70744;SDS011;59284;31.390;34.904;2022-07-23T14:15:14;5.87;;;2.00;;
70744;SDS011;59284;31.390;34.904;2022-07-23T14:17:42;6.40;;;2.22;;
70744;SDS011;59284;31.390;34.904;2022-07-23T14:20:09;6.57;;;2.05;;
70744;SDS011;59284;31.390;34.904;2022-07-23T14:22:39;8.10;;;2.33;;
70744;SDS011;59284;31.390;34.904;2022-07-23T14:25:06;7.20;;;1.95;;
70744;SDS011;59284;31.390;34.904;2022-07-23T14:27:33;6.50;;;1.70;;
70744;SDS011;59284;31.390;34.904;2022-07-23T14:30:00;8.23;;;2.00;;
70744;SDS011;59284;31.390;34.904;2022-07-23T14:32:28;8.55;;;2.08;;
70744;SDS011;59284;31.390;34.904;2022-07-23T14:34:54;8.07;;;1.70;;
70744;SDS011;59284;31.390;34.904;2022-07-23T14:37:22;4.60;;;2.10;;
70744;SDS011;59284;31.390;34.904;2022-07-23T14:39:51;5.57;;;2.05;;
70744;SDS011;59284;31.390;34.904;2022-07-23T14:42:17;6.78;;;2.55;;
70744;SDS011;59284;31.390;34.904;2022-07-23T14:44:43;5.82;;;1.90;;
70744;SDS011;59284;31.390;34.904;2022-07-23T14:47:09;8.23;;;2.60;;
70744;SDS011;59284;31.390;34.904;2022-07-23T14:49:35;6.30;;;2.35;;
70744;SDS011;59284;31.390;34.904;2022-07-23T14:52:01;5.50;;;2.40;;
70744;SDS011;59284;31.390;34.904;2022-07-23T14:54:28;6.40;;;2.00;;
70744;SDS011;59284;31.390;34.904;2022-07-23T14:57:02;7.27;;;2.47;;
70744;SDS011;59284;31.390;34.904;2022-07-23T15:03:10;6.75;;;2.03;;
70744;SDS011;59284;31.390;34.904;2022-07-23T15:05:41;5.93;;;1.75;;
70744;SDS011;59284;31.390;34.904;2022-07-23T15:08:07;5.27;;;2.23;;
70744;SDS011;59284;31.390;34.904;2022-07-23T15:10:35;4.63;;;1.85;;
70744;SDS011;59284;31.390;34.904;2022-07-23T15:13:00;8.95;;;2.40;;
70744;SDS011;59284;31.390;34.904;2022-07-23T15:15:26;8.37;;;2.60;;
70744;SDS011;59284;31.390;34.904;2022-07-23T15:17:52;6.10;;;2.37;;
70744;SDS011;59284;31.390;34.904;2022-07-23T15:20:18;6.32;;;2.05;;
70744;SDS011;59284;31.390;34.904;2022-07-23T15:22:43;6.83;;;2.27;;
70744;SDS011;59284;31.390;34.904;2022-07-23T15:25:10;5.63;;;1.88;;
70744;SDS011;59284;31.390;34.904;2022-07-23T15:27:36;9.65;;;2.20;;
70744;SDS011;59284;31.390;34.904;2022-07-23T15:30:03;9.07;;;2.10;;
70744;SDS011;59284;31.390;34.904;2022-07-23T15:32:35;4.80;;;2.05;;
70744;SDS011;59284;31.390;34.904;2022-07-23T15:35:04;5.65;;;2.40;;
70744;SDS011;59284;31.390;34.904;2022-07-23T15:37:37;5.43;;;2.22;;
70744;SDS011;59284;31.390;34.904;2022-07-23T15:40:03;6.03;;;3.07;;
70744;SDS011;59284;31.390;34.904;2022-07-23T15:42:31;11.13;;;2.40;;
70744;SDS011;59284;31.390;34.904;2022-07-23T15:45:00;8.73;;;2.53;;
70744;SDS011;59284;31.390;34.904;2022-07-23T15:47:31;6.38;;;2.45;;
70744;SDS011;59284;31.390;34.904;2022-07-23T15:50:00;5.03;;;2.23;;
70744;SDS011;59284;31.390;34.904;2022-07-23T15:52:26;9.95;;;2.65;;
70744;SDS011;59284;31.390;34.904;2022-07-23T15:54:52;9.05;;;2.40;;
70744;SDS011;59284;31.390;34.904;2022-07-23T15:57:24;8.47;;;2.60;;
70744;SDS011;59284;31.390;34.904;2022-07-23T15:59:49;7.13;;;1.88;;
70744;SDS011;59284;31.390;34.904;2022-07-23T16:02:15;7.47;;;2.40;;
70744;SDS011;59284;31.390;34.904;2022-07-23T16:04:41;7.72;;;2.67;;
70744;SDS011;59284;31.390;34.904;2022-07-23T16:07:07;8.80;;;2.77;;
70744;SDS011;59284;31.390;34.904;2022-07-23T16:09:44;5.18;;;2.03;;
70744;SDS011;59284;31.390;34.904;2022-07-23T16:12:11;6.63;;;2.15;;
70744;SDS011;59284;31.390;34.904;2022-07-23T16:14:40;9.02;;;3.10;;
70744;SDS011;59284;31.390;34.904;2022-07-23T16:17:08;8.63;;;2.57;;
70744;SDS011;59284;31.390;34.904;2022-07-23T16:19:37;11.02;;;2.78;;
70744;SDS011;59284;31.390;34.904;2022-07-23T16:22:06;6.60;;;3.00;;
70744;SDS011;59284;31.390;34.904;2022-07-23T16:24:32;6.47;;;3.08;;
70744;SDS011;59284;31.390;34.904;2022-07-23T16:26:59;7.18;;;3.60;;
70744;SDS011;59284;31.390;34.904;2022-07-23T16:29:32;7.07;;;5.30;;
70744;SDS011;59284;31.390;34.904;2022-07-23T16:32:08;16.00;;;12.23;;
70744;SDS011;59284;31.390;34.904;2022-07-23T16:34:34;23.02;;;8.80;;
70744;SDS011;59284;31.390;34.904;2022-07-23T16:36:59;9.40;;;3.10;;
70744;SDS011;59284;31.390;34.904;2022-07-23T16:39:50;7.20;;;3.13;;
70744;SDS011;59284;31.390;34.904;2022-07-23T16:42:28;6.85;;;3.08;;
70744;SDS011;59284;31.390;34.904;2022-07-23T16:44:55;7.80;;;2.63;;
70744;SDS011;59284;31.390;34.904;2022-07-23T16:47:21;10.43;;;2.97;;
70744;SDS011;59284;31.390;34.904;2022-07-23T16:49:53;7.57;;;3.22;;
70744;SDS011;59284;31.390;34.904;2022-07-23T16:55:07;15.73;;;4.18;;
70744;SDS011;59284;31.390;34.904;2022-07-23T16:57:35;9.37;;;3.00;;
70744;SDS011;59284;31.390;34.904;2022-07-23T17:00:03;9.50;;;3.50;;
70744;SDS011;59284;31.390;34.904;2022-07-23T17:05:44;12.63;;;3.45;;
70744;SDS011;59284;31.390;34.904;2022-07-23T17:08:09;15.80;;;4.10;;
70744;SDS011;59284;31.390;34.904;2022-07-23T17:10:38;8.30;;;3.87;;
70744;SDS011;59284;31.390;34.904;2022-07-23T17:13:14;7.15;;;3.20;;
70744;SDS011;59284;31.390;34.904;2022-07-23T17:15:46;10.93;;;3.72;;
70744;SDS011;59284;31.390;34.904;2022-07-23T17:18:14;8.83;;;3.37;;
70744;SDS011;59284;31.390;34.904;2022-07-23T17:20:40;14.30;;;3.50;;
70744;SDS011;59284;31.390;34.904;2022-07-23T17:23:09;11.57;;;3.28;;
70744;SDS011;59284;31.390;34.904;2022-07-23T17:25:36;14.68;;;3.60;;
70744;SDS011;59284;31.390;34.904;2022-07-23T17:28:05;10.38;;;3.35;;
70744;SDS011;59284;31.390;34.904;2022-07-23T17:30:31;7.83;;;3.27;;
70744;SDS011;59284;31.390;34.904;2022-07-23T17:33:05;8.52;;;3.17;;
70744;SDS011;59284;31.390;34.904;2022-07-23T17:35:46;9.13;;;3.47;;
70744;SDS011;59284;31.390;34.904;2022-07-23T17:38:21;9.40;;;3.30;;
70744;SDS011;59284;31.390;34.904;2022-07-23T17:40:53;8.15;;;3.38;;
70744;SDS011;59284;31.390;34.904;2022-07-23T17:43:19;8.57;;;3.30;;
70744;SDS011;59284;31.390;34.904;2022-07-23T17:45:49;11.18;;;3.85;;
70744;SDS011;59284;31.390;34.904;2022-07-23T17:48:23;9.48;;;4.03;;
70744;SDS011;59284;31.390;34.904;2022-07-23T17:53:24;9.40;;;4.00;;
70744;SDS011;59284;31.390;34.904;2022-07-23T17:55:52;8.77;;;3.67;;
70744;SDS011;59284;31.390;34.904;2022-07-23T17:58:18;11.98;;;3.80;;
70744;SDS011;59284;31.390;34.904;2022-07-23T18:00:44;9.80;;;4.10;;
70744;SDS011;59284;31.390;34.904;2022-07-23T18:03:10;9.15;;;3.65;;
70744;SDS011;59284;31.390;34.904;2022-07-23T18:05:37;9.35;;;3.72;;
70744;SDS011;59284;31.390;34.904;2022-07-23T18:08:04;11.38;;;3.60;;
70744;SDS011;59284;31.390;34.904;2022-07-23T18:13:48;8.17;;;4.23;;
70744;SDS011;59284;31.390;34.904;2022-07-23T18:16:14;9.40;;;4.10;;
70744;SDS011;59284;31.390;34.904;2022-07-23T18:18:41;8.52;;;3.65;;
70744;SDS011;59284;31.390;34.904;2022-07-23T18:21:10;8.20;;;4.10;;
70744;SDS011;59284;31.390;34.904;2022-07-23T18:23:37;12.35;;;4.15;;
70744;SDS011;59284;31.390;34.904;2022-07-23T18:26:03;9.88;;;4.35;;
70744;SDS011;59284;31.390;34.904;2022-07-23T18:28:29;9.95;;;4.15;;
70744;SDS011;59284;31.390;34.904;2022-07-23T18:30:56;12.67;;;3.97;;
70744;SDS011;59284;31.390;34.904;2022-07-23T18:33:23;13.57;;;4.30;;
70744;SDS011;59284;31.390;34.904;2022-07-23T18:35:49;9.80;;;4.00;;
70744;SDS011;59284;31.390;34.904;2022-07-23T18:38:16;7.90;;;3.57;;
70744;SDS011;59284;31.390;34.904;2022-07-23T18:40:42;9.93;;;3.90;;
70744;SDS011;59284;31.390;34.904;2022-07-23T18:43:11;9.68;;;3.47;;
70744;SDS011;59284;31.390;34.904;2022-07-23T18:45:37;10.38;;;4.13;;
70744;SDS011;59284;31.390;34.904;2022-07-23T18:48:03;9.20;;;4.20;;
70744;SDS011;59284;31.390;34.904;2022-07-23T18:53:25;8.25;;;3.80;;
70744;SDS011;59284;31.390;34.904;2022-07-23T18:56:42;16.33;;;3.60;;
70744;SDS011;59284;31.390;34.904;2022-07-23T18:59:07;9.80;;;3.50;;
70744;SDS011;59284;31.390;34.904;2022-07-23T19:01:33;10.53;;;3.57;;
70744;SDS011;59284;31.390;34.904;2022-07-23T19:04:01;6.90;;;3.42;;
70744;SDS011;59284;31.390;34.904;2022-07-23T19:07:08;8.02;;;3.63;;
70744;SDS011;59284;31.390;34.904;2022-07-23T19:09:43;10.40;;;3.90;;
70744;SDS011;59284;31.390;34.904;2022-07-23T19:12:13;9.50;;;4.10;;
70744;SDS011;59284;31.390;34.904;2022-07-23T19:14:38;10.93;;;4.32;;
70744;SDS011;59284;31.390;34.904;2022-07-23T19:17:07;7.50;;;4.00;;
70744;SDS011;59284;31.390;34.904;2022-07-23T19:19:32;7.50;;;4.05;;
70744;SDS011;59284;31.390;34.904;2022-07-23T19:21:58;14.03;;;4.57;;
70744;SDS011;59284;31.390;34.904;2022-07-23T19:24:24;8.27;;;4.33;;
70744;SDS011;59284;31.390;34.904;2022-07-23T19:26:52;9.07;;;4.00;;
70744;SDS011;59284;31.390;34.904;2022-07-23T19:29:22;7.57;;;4.40;;
70744;SDS011;59284;31.390;34.904;2022-07-23T19:31:47;11.63;;;4.17;;
70744;SDS011;59284;31.390;34.904;2022-07-23T19:34:13;12.70;;;4.93;;
70744;SDS011;59284;31.390;34.904;2022-07-23T19:36:39;9.65;;;4.43;;
70744;SDS011;59284;31.390;34.904;2022-07-23T19:39:05;12.03;;;5.40;;
70744;SDS011;59284;31.390;34.904;2022-07-23T19:41:33;13.18;;;4.97;;
70744;SDS011;59284;31.390;34.904;2022-07-23T19:44:02;10.05;;;4.80;;